Decoded Metar for KMWL (MINERAL WELLS in TX, USA) (IATA:MWL) | Meteo·Mobile Aviation Weather
aviador You're here:

KMWL Decoded Metar

MINERAL WELLS in TX, USA
Report Time2019-02-16 17:53:00
UTC Time2019-02-16 18:19:03
Flight Rules mvfr MVFR
WindCalm
Visibility9999 m
Phenomena:N/A
Clouds:Overcast 016 Hf
Expected CloudBase > 2,000 ft AGL from Temp-Dew spread
Ceiling1,600 ft
Temp03°C (ISA -10)
Dew Point-2°C (70% RH)
AAT0.7°C
QNH1011 hPa
Density Alt-154 ft
Elevation932 ft
Report Wrong Elevation
Raw Report
KMWL 161753Z AUTO 00000KT 10SM OVC016 03/M02 A2986 RMK AO2 SLP113
T00281022 10028 20000 58017=

Extra information for KMWL:More info

Metar Taf Metar & Taf Last 4 Metars F.Rules Stats Wind Profile Meteogram Temp Stats Airport Information Weather charts Add Link Nearby VenuesMetar ALERT Operation Metar Decoded Social comments

AIRNAV info for KMWL